Ripon, Wisconsin
Current Conditions -  °F | °C
As of 2:53 AM on Monday 24 Nov 2014 (Local Time) from KOSH Reporting Station
Moderate Fog Moderate Fog  
Wind Chill:   Ceiling: 300
Heat Index:   Visibility: 0.5mi
Dew Point:   Wind: 3mph
Humidity: 96%   Direction: 270°W
Pressure: 29.04"   Gusts: NA
Location:  43.85°N, 88.84°W
Report Text: KOSH 240853Z 27003KT 1/2SM R36/3500V4000FT FG OVC003 06/05 A2904 RMK AO2 RAE11 SLP839 P0000 60004 T00560050 56023
Loading
Personal Weather Stations






























Interactive Weather Map New forecast layout! Learn more

10-Day Weather Forecast

Advertisements
Track Severe Weather on mobile